Time;durP1;ratioP1;P1;durP2;ratioP2;P2;SDS_P1;SDS_P2;PMS_P1;PMS_P2;Temp;Humidity;BMP_temperature;BMP_pressure;BME280_temperature;BME280_humidity;BME280_pressure;Samples;Min_cycle;Max_cycle;Signal;HPM_P1;HPM_P2
2022/10/14 00:00:19;;;;;;;14.30;7.50;;;;;;;14.77;100.00;100361.41;5013996;28;20030;-87
2022/10/14 00:02:46;;;;;;;15.50;7.10;;;;;;;14.71;100.00;100356.63;5014567;28;20034;-87
2022/10/14 00:05:11;;;;;;;16.33;7.70;;;;;;;14.72;100.00;100360.97;5014653;28;20037;-87
2022/10/14 00:07:37;;;;;;;9.90;6.78;;;;;;;14.73;100.00;100360.00;5014448;28;20476;-87
2022/10/14 00:10:05;;;;;;;14.18;6.82;;;;;;;14.72;100.00;100363.63;5014370;28;20045;-87
2022/10/14 00:12:31;;;;;;;11.55;6.90;;;;;;;14.71;100.00;100361.94;5014449;28;20022;-87
2022/10/14 00:14:57;;;;;;;16.80;6.82;;;;;;;14.66;100.00;100360.53;5012349;28;20030;-87
2022/10/14 00:17:22;;;;;;;16.90;7.22;;;;;;;14.65;100.00;100356.22;5013038;28;20381;-87
2022/10/14 00:19:48;;;;;;;12.88;6.38;;;;;;;14.67;100.00;100346.34;5014003;28;20373;-87
2022/10/14 00:22:13;;;;;;;25.27;8.52;;;;;;;14.81;100.00;100352.22;5013623;28;20034;-86
2022/10/14 00:24:39;;;;;;;16.58;7.18;;;;;;;14.79;100.00;100354.16;5013043;28;20018;-87
2022/10/14 00:27:04;;;;;;;14.18;7.55;;;;;;;14.79;100.00;100348.88;5014221;28;20107;-87
2022/10/14 00:29:30;;;;;;;20.33;8.65;;;;;;;14.84;100.00;100351.97;5014199;28;20496;-87
2022/10/14 00:31:55;;;;;;;14.63;7.93;;;;;;;14.82;100.00;100348.63;5014455;28;20025;-87
2022/10/14 00:34:21;;;;;;;13.68;8.00;;;;;;;14.83;100.00;100353.78;5014051;28;20033;-87
2022/10/14 00:36:47;;;;;;;25.73;9.75;;;;;;;14.93;100.00;100351.19;5013143;28;20030;-87
2022/10/14 00:39:12;;;;;;;22.33;10.27;;;;;;;14.93;100.00;100345.03;5012836;28;20041;-87
2022/10/14 00:41:38;;;;;;;20.65;10.07;;;;;;;14.95;100.00;100338.66;5014077;28;20034;-87
2022/10/14 00:44:27;;;;;;;11.45;8.05;;;;;;;14.94;100.00;100344.91;5013792;28;20053;-87
2022/10/14 00:46:53;;;;;;;20.13;8.95;;;;;;;14.86;100.00;100342.09;5013840;28;20030;-87
2022/10/14 00:49:30;;;;;;;17.98;9.07;;;;;;;14.82;100.00;100335.41;5013797;28;20029;-87
2022/10/14 00:52:00;;;;;;;15.40;8.32;;;;;;;14.82;100.00;100328.31;5013123;28;20033;-87
2022/10/14 00:54:34;;;;;;;15.23;8.80;;;;;;;14.83;100.00;100327.34;5013844;28;20022;-87
2022/10/14 00:57:00;;;;;;;15.48;8.40;;;;;;;14.79;100.00;100314.53;5012176;28;20069;-87
2022/10/14 00:59:26;;;;;;;16.88;8.80;;;;;;;14.77;100.00;100312.03;5013618;28;20025;-87
2022/10/14 01:01:52;;;;;;;18.02;8.57;;;;;;;14.76;100.00;100306.88;5011987;28;20461;-87
2022/10/14 01:04:17;;;;;;;14.38;7.68;;;;;;;14.74;100.00;100308.81;5013429;28;20026;-87
2022/10/14 01:07:07;;;;;;;15.48;8.63;;;;;;;14.74;100.00;100304.34;5012653;28;20085;-88
2022/10/14 01:09:37;;;;;;;16.77;7.75;;;;;;;14.74;100.00;100298.25;5012010;28;20048;-87
2022/10/14 01:12:15;;;;;;;15.35;8.18;;;;;;;14.74;100.00;100303.53;5013525;28;20026;-88
2022/10/14 01:14:50;;;;;;;14.68;8.68;;;;;;;14.76;100.00;100309.53;5012224;28;20048;-87
2022/10/14 01:17:51;;;;;;;12.30;7.50;;;;;;;14.74;100.00;100314.94;5013657;28;20488;-87
2022/10/14 01:20:38;;;;;;;16.27;7.35;;;;;;;14.75;100.00;100305.19;5010795;28;20050;-87
2022/10/14 01:23:09;;;;;;;16.02;10.30;;;;;;;14.80;100.00;100297.72;5013118;28;20072;-87
2022/10/14 01:25:46;;;;;;;19.33;11.40;;;;;;;14.94;100.00;100294.69;5013171;28;20430;-87
2022/10/14 01:28:20;;;;;;;17.48;9.75;;;;;;;14.99;100.00;100296.94;5013052;28;20026;-87
2022/10/14 01:30:51;;;;;;;16.95;10.20;;;;;;;15.07;100.00;100299.75;5013033;28;20022;-87
2022/10/14 01:33:36;;;;;;;18.45;9.80;;;;;;;15.17;100.00;100294.47;5013179;28;20024;-87
2022/10/14 01:36:09;;;;;;;14.52;9.25;;;;;;;15.18;100.00;100282.91;5009999;28;20065;-87
2022/10/14 01:38:57;;;;;;;16.98;9.52;;;;;;;15.22;100.00;100286.94;5012311;28;20389;-87
2022/10/14 01:41:28;;;;;;;14.98;9.05;;;;;;;15.23;100.00;100288.63;5012906;28;20018;-87
2022/10/14 01:43:59;;;;;;;14.53;8.23;;;;;;;15.19;100.00;100287.22;5012888;28;20471;-87
2022/10/14 01:46:25;;;;;;;16.07;8.37;;;;;;;15.13;100.00;100293.06;5012840;28;20026;-87
2022/10/14 01:48:57;;;;;;;12.43;8.35;;;;;;;15.18;100.00;100286.38;5012652;28;20033;-88
2022/10/14 01:51:38;;;;;;;14.88;8.75;;;;;;;15.14;100.00;100281.50;5011889;28;20030;-87
2022/10/14 01:54:16;;;;;;;9.85;7.70;;;;;;;15.10;100.00;100269.53;5011452;28;20087;-87
2022/10/14 01:56:44;;;;;;;13.55;8.45;;;;;;;14.95;100.00;100259.34;5012757;28;20022;-87
2022/10/14 01:59:13;;;;;;;18.40;8.55;;;;;;;15.10;100.00;100253.66;5011604;28;20029;-87
2022/10/14 02:01:39;;;;;;;11.98;8.15;;;;;;;15.05;100.00;100256.72;5012539;28;20054;-87
2022/10/14 02:04:19;;;;;;;12.35;7.95;;;;;;;15.18;100.00;100262.56;5012496;28;20022;-87
2022/10/14 02:06:59;;;;;;;20.27;8.45;;;;;;;15.23;100.00;100239.19;5009966;28;20080;-87
2022/10/14 02:09:29;;;;;;;15.60;8.23;;;;;;;15.39;100.00;100240.47;5012179;28;20034;-87
2022/10/14 02:11:57;;;;;;;18.42;8.30;;;;;;;15.42;100.00;100238.38;5011138;28;20025;-87
2022/10/14 02:14:36;;;;;;;14.73;8.77;;;;;;;15.44;100.00;100244.38;5012428;28;20018;-88
2022/10/14 02:17:11;;;;;;;13.10;7.45;;;;;;;15.40;100.00;100237.69;5012375;28;20480;-87
2022/10/14 02:19:44;;;;;;;12.75;7.55;;;;;;;15.40;100.00;100231.53;5010880;28;20048;-87
2022/10/14 02:22:26;;;;;;;12.95;7.65;;;;;;;15.43;100.00;100226.81;5011688;28;20022;-87
2022/10/14 02:24:55;;;;;;;13.95;7.55;;;;;;;15.50;100.00;100231.53;5012424;28;20026;-87
2022/10/14 02:27:24;;;;;;;10.85;6.55;;;;;;;15.49;100.00;100235.19;5011202;28;20052;-87
2022/10/14 02:29:51;;;;;;;11.10;7.35;;;;;;;15.45;100.00;100234.63;5012053;28;20040;-88
2022/10/14 02:32:19;;;;;;;14.55;6.88;;;;;;;15.47;100.00;100238.78;5012209;28;20022;-88
2022/10/14 02:34:49;;;;;;;12.00;7.03;;;;;;;15.46;100.00;100242.41;5012097;28;20061;-87
2022/10/14 02:37:17;;;;;;;12.40;6.63;;;;;;;15.40;100.00;100247.41;5011100;28;20038;-88
2022/10/14 02:39:52;;;;;;;11.70;7.07;;;;;;;15.47;100.00;100244.06;5010764;28;20034;-87
2022/10/14 02:42:18;;;;;;;20.08;8.35;;;;;;;15.46;100.00;100237.13;5012124;28;20053;-88
2022/10/14 02:44:55;;;;;;;12.82;7.60;;;;;;;15.60;100.00;100229.72;5010735;28;20476;-87
2022/10/14 02:47:22;;;;;;;13.02;7.40;;;;;;;15.63;100.00;100222.34;5012129;28;20476;-87
2022/10/14 02:49:47;;;;;;;13.40;6.97;;;;;;;15.63;100.00;100214.38;5012031;28;20037;-87
2022/10/14 02:52:13;;;;;;;10.25;7.13;;;;;;;15.63;100.00;100205.63;5015649;28;20550;-87
2022/10/14 02:54:38;;;;;;;13.52;7.70;;;;;;;15.72;100.00;100211.88;5016528;28;20057;-87
2022/10/14 02:57:04;;;;;;;13.50;7.00;;;;;;;15.75;100.00;100204.50;5016052;28;20034;-87
2022/10/14 02:59:30;;;;;;;10.43;6.93;;;;;;;15.85;100.00;100196.56;5016144;28;20416;-87
2022/10/14 03:01:55;;;;;;;14.60;7.28;;;;;;;15.92;100.00;100191.53;5016238;28;20018;-87
2022/10/14 03:04:21;;;;;;;13.32;7.32;;;;;;;15.96;100.00;100191.09;5016337;28;20096;-87
2022/10/14 03:06:46;;;;;;;11.30;7.22;;;;;;;15.97;100.00;100197.22;5015124;28;20029;-87
2022/10/14 03:09:12;;;;;;;13.15;7.38;;;;;;;15.91;100.00;100188.03;5014811;28;20026;-88
2022/10/14 03:11:37;;;;;;;11.50;6.78;;;;;;;15.97;100.00;100184.78;5014976;28;20060;-87
2022/10/14 03:14:02;;;;;;;10.15;6.63;;;;;;;16.00;100.00;100186.34;5014848;28;20025;-87
2022/10/14 03:16:28;;;;;;;13.48;7.88;;;;;;;15.96;100.00;100174.38;5016097;28;20034;-87
2022/10/14 03:18:53;;;;;;;9.45;6.40;;;;;;;16.07;100.00;100176.81;5015612;28;20488;-87
2022/10/14 03:21:19;;;;;;;12.77;6.90;;;;;;;15.94;100.00;100171.88;5015008;28;20033;-88
2022/10/14 03:23:44;;;;;;;8.18;5.70;;;;;;;16.12;100.00;100174.59;5013794;28;20120;-87
2022/10/14 03:26:10;;;;;;;10.38;6.35;;;;;;;16.13;100.00;100168.28;5015755;28;20021;-87
2022/10/14 03:28:35;;;;;;;9.88;5.65;;;;;;;16.07;100.00;100158.28;5015179;28;20534;-87
2022/10/14 03:31:01;;;;;;;11.45;6.10;;;;;;;15.96;100.00;100163.78;5015570;28;20025;-87
2022/10/14 03:33:26;;;;;;;10.02;5.68;;;;;;;16.08;100.00;100162.63;5014172;28;20492;-87
2022/10/14 03:35:52;;;;;;;6.57;4.60;;;;;;;16.08;100.00;100167.09;5014380;28;20029;-88
2022/10/14 03:38:17;;;;;;;10.38;6.05;;;;;;;16.12;100.00;100156.03;5014475;28;20581;-87
2022/10/14 03:40:43;;;;;;;11.63;6.78;;;;;;;16.15;100.00;100142.53;5014030;28;20026;-87
2022/10/14 03:43:08;;;;;;;12.75;6.30;;;;;;;16.07;100.00;100150.34;5013911;28;20045;-87
2022/10/14 03:45:34;;;;;;;7.78;6.03;;;;;;;15.95;100.00;100140.91;5004831;28;20093;-87
2022/10/14 03:47:59;;;;;;;8.18;5.75;;;;;;;16.05;100.00;100134.63;4994985;28;20481;-88
2022/10/14 03:50:25;;;;;;;9.48;5.45;;;;;;;16.12;100.00;100132.22;4995465;28;20117;-87
2022/10/14 03:52:50;;;;;;;9.85;6.68;;;;;;;16.00;100.00;100141.31;5010763;28;20022;-87
2022/10/14 03:55:16;;;;;;;11.63;5.65;;;;;;;16.10;100.00;100128.88;5013598;28;20034;-88
2022/10/14 03:57:41;;;;;;;10.13;6.18;;;;;;;16.08;100.00;100119.41;5013510;28;20087;-87
2022/10/14 04:00:08;;;;;;;11.05;7.00;;;;;;;16.02;100.00;100121.66;5014739;28;20026;-87
2022/10/14 04:02:33;;;;;;;9.85;5.85;;;;;;;16.17;100.00;100121.16;5014279;28;20030;-87
2022/10/14 04:04:59;;;;;;;13.15;6.57;;;;;;;16.21;100.00;100119.88;5014013;28;20050;-87
2022/10/14 04:07:24;;;;;;;10.95;6.63;;;;;;;16.17;100.00;100119.38;5014633;28;20069;-88
2022/10/14 04:09:50;;;;;;;11.45;6.88;;;;;;;16.23;100.00;100125.88;5014573;28;20035;-88
2022/10/14 04:12:16;;;;;;;8.43;5.93;;;;;;;16.15;100.00;100116.03;5014687;28;20029;-87
2022/10/14 04:14:41;;;;;;;14.25;6.82;;;;;;;16.19;100.00;100116.53;5014575;28;20032;-87
2022/10/14 04:17:07;;;;;;;13.27;6.55;;;;;;;16.13;100.00;100112.66;5014560;28;20109;-87
2022/10/14 04:19:32;;;;;;;9.13;6.05;;;;;;;16.19;100.00;100120.06;5014445;28;20018;-87
2022/10/14 04:21:58;;;;;;;11.85;6.65;;;;;;;16.24;100.00;100109.81;5013844;28;20025;-87
2022/10/14 04:24:23;;;;;;;12.27;7.03;;;;;;;16.16;100.00;100096.50;5013035;28;20058;-87
2022/10/14 04:26:50;;;;;;;8.02;5.68;;;;;;;16.26;100.00;100102.56;5014336;28;20472;-87
2022/10/14 04:29:17;;;;;;;9.20;6.40;;;;;;;16.22;100.00;100103.84;5012861;28;20112;-87
2022/10/14 04:31:42;;;;;;;8.77;6.68;;;;;;;16.22;100.00;100101.19;5013070;28;20026;-87
2022/10/14 04:34:09;;;;;;;10.98;6.63;;;;;;;16.24;100.00;100101.88;5014187;28;20465;-87
2022/10/14 04:36:35;;;;;;;10.02;6.28;;;;;;;16.19;100.00;100093.56;5011308;28;20038;-88
2022/10/14 04:39:00;;;;;;;13.02;6.95;;;;;;;16.14;100.00;100084.38;5014111;28;20028;-88
2022/10/14 04:41:26;;;;;;;8.38;6.55;;;;;;;16.22;100.00;100090.59;5012824;28;20055;-88
2022/10/14 04:43:52;;;;;;;10.98;6.00;;;;;;;16.21;100.00;100083.66;5012602;28;20037;-88
2022/10/14 04:46:17;;;;;;;10.93;6.10;;;;;;;16.23;100.00;100092.28;5013966;28;20025;-88
2022/10/14 04:48:43;;;;;;;10.95;6.63;;;;;;;16.19;100.00;100088.25;5012334;28;20033;-88
2022/10/14 04:51:08;;;;;;;9.15;6.32;;;;;;;16.09;100.00;100084.81;5013091;28;20029;-88
2022/10/14 04:53:34;;;;;;;12.52;5.82;;;;;;;16.14;100.00;100082.56;5013756;28;20022;-88
2022/10/14 04:55:59;;;;;;;12.23;7.18;;;;;;;16.09;100.00;100090.09;5013712;28;20423;-88
2022/10/14 04:58:25;;;;;;;7.85;5.93;;;;;;;16.18;100.00;100083.09;5013523;28;20021;-88
2022/10/14 05:00:53;;;;;;;9.90;6.55;;;;;;;16.21;100.00;100078.34;5012300;28;20060;-88
2022/10/14 05:03:19;;;;;;;13.93;6.30;;;;;;;16.10;100.00;100073.25;5011981;28;20049;-87
2022/10/14 05:05:45;;;;;;;9.02;6.30;;;;;;;16.17;100.00;100069.03;5007812;28;20053;-88
2022/10/14 05:08:10;;;;;;;12.57;6.93;;;;;;;16.21;100.00;100077.50;4993389;28;20026;-88
2022/10/14 05:10:36;;;;;;;12.60;6.70;;;;;;;16.25;100.00;100066.47;4993598;28;20030;-88
2022/10/14 05:13:02;;;;;;;7.88;5.80;;;;;;;16.33;100.00;100059.56;4993356;28;20034;-87
2022/10/14 05:15:28;;;;;;;12.45;6.47;;;;;;;16.35;100.00;100058.47;5013084;28;20026;-88
2022/10/14 05:17:53;;;;;;;10.20;5.90;;;;;;;16.33;100.00;100049.84;5013021;28;20116;-88
2022/10/14 05:20:19;;;;;;;8.88;5.93;;;;;;;16.36;100.00;100059.28;5011585;28;20026;-89
2022/10/14 05:22:44;;;;;;;14.00;6.60;;;;;;;16.36;100.00;100069.88;5010224;28;20157;-88
2022/10/14 05:25:10;;;;;;;7.88;5.85;;;;;;;16.35;100.00;100058.47;5022865;28;20384;-89
2022/10/14 05:27:35;;;;;;;9.80;5.60;;;;;;;16.34;100.00;100050.66;5011086;28;20033;-89
2022/10/14 05:30:01;;;;;;;13.43;6.95;;;;;;;16.31;100.00;100043.00;5014637;28;20034;-87
2022/10/14 05:32:27;;;;;;;8.57;6.05;;;;;;;16.30;100.00;100033.41;5032175;28;20109;-88
2022/10/14 05:34:53;;;;;;;8.57;6.28;;;;;;;16.37;100.00;100023.84;5014686;28;20048;-87
2022/10/14 05:37:18;;;;;;;11.38;5.93;;;;;;;16.52;100.00;100034.75;5013551;28;20025;-87
2022/10/14 05:39:44;;;;;;;9.05;6.30;;;;;;;16.47;100.00;100040.53;5023392;28;20024;-88
2022/10/14 05:42:09;;;;;;;6.43;5.50;;;;;;;16.50;100.00;100034.09;5010858;28;20469;-87
2022/10/14 05:44:34;;;;;;;9.65;5.40;;;;;;;16.44;100.00;100035.50;5018536;28;20030;-88
2022/10/14 05:47:00;;;;;;;8.77;5.55;;;;;;;16.45;100.00;100034.56;5012685;28;20443;-88
2022/10/14 05:49:26;;;;;;;12.85;6.20;;;;;;;16.39;100.00;100033.34;5013941;28;20033;-88
2022/10/14 05:51:51;;;;;;;9.40;5.63;;;;;;;16.43;100.00;100023.28;5013618;28;20379;-87
2022/10/14 05:54:17;;;;;;;17.67;6.43;;;;;;;16.45;100.00;100026.59;5012290;28;20456;-87
2022/10/14 05:56:42;;;;;;;8.20;5.47;;;;;;;16.54;100.00;100022.19;5012957;28;20100;-88
2022/10/14 05:59:09;;;;;;;9.43;5.57;;;;;;;16.57;100.00;100027.19;5029659;28;20103;-88
2022/10/14 06:01:36;;;;;;;7.43;5.70;;;;;;;16.56;100.00;100034.31;5032452;28;20089;-87
2022/10/14 06:04:02;;;;;;;8.45;5.47;;;;;;;16.56;100.00;100025.53;5022857;28;20068;-87
2022/10/14 06:06:28;;;;;;;6.43;5.60;;;;;;;16.57;100.00;100027.19;5012337;28;20026;-87
2022/10/14 06:08:55;;;;;;;8.68;5.70;;;;;;;16.55;100.00;100027.34;5011978;28;20025;-87
2022/10/14 06:11:21;;;;;;;8.90;5.68;;;;;;;16.39;100.00;100019.22;5011355;28;20033;-88
2022/10/14 06:13:46;;;;;;;11.45;6.40;;;;;;;16.49;100.00;100006.75;5012109;28;20025;-87
2022/10/14 06:16:12;;;;;;;8.55;5.95;;;;;;;16.57;100.00;100017.44;5012759;28;20053;-88
2022/10/14 06:18:37;;;;;;;7.07;5.40;;;;;;;16.52;100.00;100011.75;5011774;28;20124;-88
2022/10/14 06:21:04;;;;;;;10.13;5.55;;;;;;;16.52;100.00;100009.09;5011008;28;20084;-88
2022/10/14 06:23:30;;;;;;;7.20;5.00;;;;;;;16.56;100.00;100006.97;5012175;28;20100;-88
2022/10/14 06:25:55;;;;;;;11.43;5.05;;;;;;;16.73;100.00;100015.91;5011143;28;20113;-88
2022/10/14 06:28:21;;;;;;;8.82;6.40;;;;;;;16.60;100.00;100009.16;5026943;28;20017;-87
2022/10/14 06:30:53;;;;;;;11.32;5.88;;;;;;;16.54;100.00;100008.94;5012075;28;20109;-88
2022/10/14 06:33:19;;;;;;;6.47;5.47;;;;;;;16.73;100.00;100002.66;5011139;28;20036;-87
2022/10/14 06:35:45;;;;;;;6.85;5.07;;;;;;;16.78;100.00;100011.78;5012217;28;20022;-87
2022/10/14 06:38:10;;;;;;;5.82;4.20;;;;;;;16.81;100.00;100013.31;5012389;28;20052;-88
2022/10/14 06:40:36;;;;;;;7.13;5.00;;;;;;;16.81;100.00;100008.88;5003347;28;20030;-87
2022/10/14 06:43:03;;;;;;;9.90;5.93;;;;;;;16.83;100.00;100003.41;4999774;28;20077;-88
2022/10/14 06:45:28;;;;;;;9.02;5.53;;;;;;;16.81;100.00;100000.06;5011773;28;20038;-88
2022/10/14 06:47:54;;;;;;;11.02;5.72;;;;;;;16.82;100.00;99993.78;5015547;28;20503;-88
2022/10/14 06:50:19;;;;;;;8.13;5.03;;;;;;;16.93;100.00;100001.50;5028276;28;20029;-88
2022/10/14 06:52:45;;;;;;;9.32;4.93;;;;;;;16.94;100.00;100012.91;5022503;28;20468;-87
2022/10/14 06:55:11;;;;;;;7.70;5.40;;;;;;;16.92;100.00;100007.78;5010462;28;20072;-89
2022/10/14 06:57:36;;;;;;;9.82;5.25;;;;;;;16.91;100.00;100014.06;5026053;28;20033;-88
2022/10/14 07:00:03;;;;;;;7.85;4.97;;;;;;;16.94;100.00;100013.78;5030762;28;20468;-88
2022/10/14 07:02:29;;;;;;;7.30;4.97;;;;;;;16.95;100.00;100018.06;5015323;28;20468;-89
2022/10/14 07:04:54;;;;;;;6.53;4.93;;;;;;;16.91;100.00;100014.06;5017951;28;20033;-88
2022/10/14 07:07:20;;;;;;;5.50;4.90;;;;;;;16.89;100.00;100018.69;5020156;28;20028;-89
2022/10/14 07:09:45;;;;;;;6.85;4.30;;;;;;;16.94;100.00;100027.03;5010539;28;20113;-88
2022/10/14 07:12:11;;;;;;;10.35;5.03;;;;;;;17.02;100.00;100027.09;5011248;28;20026;-88
2022/10/14 07:14:36;;;;;;;7.13;4.70;;;;;;;17.10;100.00;100036.06;5011461;28;20022;-89
2022/10/14 07:17:02;;;;;;;7.35;5.05;;;;;;;17.14;100.00;100029.47;5023339;28;20537;-88
2022/10/14 07:19:28;;;;;;;5.47;4.50;;;;;;;17.15;100.00;100039.09;5030395;28;20105;-88
2022/10/14 07:21:53;;;;;;;8.50;5.03;;;;;;;17.13;100.00;100030.47;5029500;28;20056;-89
2022/10/14 07:24:18;;;;;;;9.20;4.97;;;;;;;17.22;100.00;100025.06;5018914;28;20030;-89
2022/10/14 07:26:44;;;;;;;8.82;5.32;;;;;;;17.22;100.00;100029.53;5015127;28;20077;-90
2022/10/14 07:29:09;;;;;;;6.97;4.82;;;;;;;17.32;100.00;100038.22;5011190;28;20030;-89
2022/10/14 07:31:35;;;;;;;7.03;4.85;;;;;;;17.37;100.00;100035.91;5011565;28;20087;-89
2022/10/14 07:34:01;;;;;;;12.75;4.97;;;;;;;17.24;100.00;100035.53;5013280;28;20006;-88
2022/10/14 07:36:26;;;;;;;7.05;5.10;;;;;;;17.33;100.00;100031.91;5011968;28;20028;-89
2022/10/14 07:38:52;;;;;;;6.88;5.38;;;;;;;17.47;100.00;100021.69;5024733;28;20431;-88
2022/10/14 07:41:20;;;;;;;6.45;4.25;;;;;;;17.54;100.00;100020.09;5020043;28;20033;-89
2022/10/14 07:43:48;;;;;;;6.07;4.38;;;;;;;17.56;100.00;100015.44;5020671;28;20057;-89
2022/10/14 07:46:17;;;;;;;5.70;4.07;;;;;;;17.62;100.00;100010.31;5014756;28;20022;-89
2022/10/14 07:48:42;;;;;;;8.07;4.28;;;;;;;17.68;100.00;100019.47;5013860;28;20084;-88
2022/10/14 07:51:08;;;;;;;7.53;4.40;;;;;;;17.71;100.00;100018.31;5011849;28;20029;-88
2022/10/14 07:53:35;;;;;;;8.85;4.22;;;;;;;17.78;100.00;100016.69;5023457;28;20053;-89
2022/10/14 07:56:02;;;;;;;4.53;3.45;;;;;;;17.79;100.00;100021.84;5028234;28;20025;-88
2022/10/14 07:58:30;;;;;;;4.95;3.60;;;;;;;17.86;100.00;100024.72;5013378;28;20084;-89
2022/10/14 08:00:56;;;;;;;5.70;3.75;;;;;;;17.87;100.00;100033.50;5021394;28;20029;-89
2022/10/14 08:03:23;;;;;;;4.82;3.28;;;;;;;17.90;100.00;100027.91;5014656;28;20029;-88
2022/10/14 08:05:49;;;;;;;7.05;4.43;;;;;;;17.89;100.00;100020.91;5014774;28;20076;-89
2022/10/14 08:08:16;;;;;;;4.40;3.40;;;;;;;17.94;100.00;100029.22;5014239;28;20029;-89
2022/10/14 08:10:43;;;;;;;3.90;2.92;;;;;;;18.00;100.00;100033.91;5014580;28;20056;-89
2022/10/14 08:13:09;;;;;;;4.55;3.80;;;;;;;18.02;100.00;100050.50;5014558;28;20380;-88
2022/10/14 08:15:39;;;;;;;5.63;3.40;;;;;;;17.89;100.00;100052.78;5013813;28;20033;-88
2022/10/14 08:18:06;;;;;;;3.22;2.78;;;;;;;17.83;100.00;100055.09;5016002;28;20036;-88
2022/10/14 08:20:32;;;;;;;4.13;2.50;;;;;;;17.95;100.00;100052.13;5013194;28;20044;-89
2022/10/14 08:22:59;;;;;;;5.32;3.08;;;;;;;17.87;100.00;100042.34;5014302;28;20022;-89
2022/10/14 08:25:25;;;;;;;3.83;2.92;;;;;;;17.91;100.00;100045.47;5014540;28;20046;-89
2022/10/14 08:27:51;;;;;;;4.50;2.35;;;;;;;17.90;100.00;100041.16;5014385;28;20436;-88
2022/10/14 08:30:17;;;;;;;4.68;2.60;;;;;;;17.91;100.00;100053.44;5013183;28;20479;-88
2022/10/14 08:32:42;;;;;;;3.00;2.70;;;;;;;17.80;100.00;100058.03;5014161;28;20037;-88
2022/10/14 08:35:08;;;;;;;4.00;2.67;;;;;;;17.84;100.00;100054.09;5014845;28;20030;-89
2022/10/14 08:37:35;;;;;;;4.28;2.78;;;;;;;17.75;100.00;100044.41;5015196;28;20534;-88
2022/10/14 08:40:00;;;;;;;8.63;3.33;;;;;;;17.75;100.00;100040.91;5015447;28;20030;-87
2022/10/14 08:42:43;;;;;;;3.80;2.60;;;;;;;17.80;100.00;100028.81;5015827;28;20376;-88
2022/10/14 08:45:16;;;;;;;4.47;3.05;;;;;;;17.81;100.00;100038.47;5014868;28;20117;-88
2022/10/14 08:47:45;;;;;;;5.80;3.13;;;;;;;17.81;100.00;100043.78;5015435;28;20037;-88
2022/10/14 08:50:21;;;;;;;7.07;3.20;;;;;;;17.82;100.00;100036.63;5017653;28;20051;-88
2022/10/14 08:52:55;;;;;;;4.90;2.78;;;;;;;17.80;100.00;100039.44;5026202;28;20022;-87
2022/10/14 08:55:38;;;;;;;6.25;3.13;;;;;;;17.90;100.00;100033.22;5025931;28;20370;-87
2022/10/14 08:58:20;;;;;;;5.82;3.45;;;;;;;17.81;100.00;100029.63;5023965;28;20022;-89
2022/10/14 09:00:49;;;;;;;6.25;2.90;;;;;;;17.81;100.00;100045.56;5024178;28;20163;-89
2022/10/14 09:03:21;;;;;;;7.57;3.97;;;;;;;17.70;100.00;100043.22;5020195;28;20021;-88
2022/10/14 09:05:58;;;;;;;7.60;3.33;;;;;;;17.81;100.00;100045.56;5020951;28;20014;-89
2022/10/14 09:08:31;;;;;;;4.20;2.70;;;;;;;17.89;100.00;100055.44;5021069;28;20034;-88
2022/10/14 09:10:58;;;;;;;8.38;3.88;;;;;;;17.93;100.00;100046.16;5019967;28;20025;-88
2022/10/14 09:13:37;;;;;;;5.85;2.83;;;;;;;18.06;100.00;100043.88;5019018;28;20072;-88
2022/10/14 09:16:25;;;;;;;7.18;4.05;;;;;;;18.20;100.00;100035.25;5014695;28;20037;-89
2022/10/14 09:19:01;;;;;;;4.30;2.67;;;;;;;18.28;100.00;100023.00;5013513;28;20026;-89
2022/10/14 09:22:00;;;;;;;2.90;2.13;;;;;;;18.48;100.00;100021.69;5022648;28;20018;-89
2022/10/14 09:24:37;;;;;;;7.63;2.58;;;;;;;18.55;100.00;100017.38;4994034;28;20496;-88
2022/10/14 09:27:04;;;;;;;3.38;1.50;;;;;;;18.61;100.00;100019.38;4999217;28;20112;-88
2022/10/14 09:29:31;;;;;;;2.05;1.50;;;;;;;18.59;100.00;100024.03;5011276;28;20040;-88
2022/10/14 09:32:00;;;;;;;2.40;1.42;;;;;;;18.58;100.00;100013.56;5015047;28;20738;-89
2022/10/14 09:34:36;;;;;;;1.98;1.30;;;;;;;18.67;100.00;100004.59;5013619;28;20387;-89
2022/10/14 09:37:21;;;;;;;2.35;1.00;;;;;;;18.49;100.00;100001.28;5009692;28;20017;-90
2022/10/14 09:39:48;;;;;;;2.40;1.40;;;;;;;18.32;100.00;99995.09;4992481;28;20033;-89
2022/10/14 09:42:46;;;;;;;2.60;1.20;;;;;;;18.23;100.00;100005.72;4994095;28;20429;-89
2022/10/14 09:45:18;;;;;;;2.63;1.08;;;;;;;18.11;100.00;100016.81;5002269;28;20045;-89
2022/10/14 09:48:02;;;;;;;1.85;0.73;;;;;;;18.20;100.00;100018.50;5011242;28;20026;-89
2022/10/14 09:50:47;;;;;;;2.20;0.93;;;;;;;18.09;100.00;100032.09;4992144;28;20434;-89
2022/10/14 09:53:25;;;;;;;2.25;0.95;;;;;;;18.14;100.00;100022.63;4991935;28;20022;-89
2022/10/14 09:55:58;;;;;;;1.40;0.65;;;;;;;18.09;100.00;100032.94;4993552;28;20110;-89
2022/10/14 09:58:46;;;;;;;0.90;0.63;;;;;;;18.16;100.00;100043.72;5009027;28;20121;-89
2022/10/14 10:01:23;;;;;;;1.92;0.50;;;;;;;18.20;100.00;100031.78;4993194;28;20109;-88
2022/10/14 10:03:51;;;;;;;0.47;0.30;;;;;;;18.27;100.00;100043.44;4993710;28;20038;-89
2022/10/14 10:06:20;;;;;;;1.02;0.40;;;;;;;18.44;100.00;100046.94;5020232;28;20030;-89
2022/10/14 10:08:51;;;;;;;2.47;0.47;;;;;;;18.32;100.00;100053.56;5011688;28;20018;-88
2022/10/14 10:11:29;;;;;;;1.88;0.40;;;;;;;18.34;100.00;100046.25;5024398;28;20488;-88
2022/10/14 10:13:55;;;;;;;0.93;0.40;;;;;;;18.30;100.00;100044.94;5013922;28;20121;-89
2022/10/14 10:16:30;;;;;;;0.60;0.47;;;;;;;18.34;100.00;100046.25;5012416;28;20029;-90
2022/10/14 10:19:00;;;;;;;2.22;0.47;;;;;;;18.22;100.00;100046.56;5010110;28;20515;-89
2022/10/14 10:21:29;;;;;;;0.95;0.60;;;;;;;18.13;100.00;100044.06;5016632;28;20552;-89
2022/10/14 10:23:57;;;;;;;1.73;0.50;;;;;;;18.12;100.00;100043.22;5028653;28;20483;-89
2022/10/14 10:26:28;;;;;;;2.03;0.60;;;;;;;17.96;100.00;100037.88;5031433;28;20033;-89
2022/10/14 10:28:56;;;;;;;1.25;0.47;;;;;;;18.07;100.00;100040.25;5030341;28;20092;-89
2022/10/14 10:31:54;;;;;;;1.05;0.60;;;;;;;18.08;100.00;100035.75;5032688;28;20025;-89
2022/10/14 10:34:44;;;;;;;2.03;0.70;;;;;;;18.08;100.00;100036.56;5023114;28;20113;-89
2022/10/14 10:37:16;;;;;;;1.92;1.20;;;;;;;18.21;100.00;100033.47;5012893;28;20018;-89
2022/10/14 10:40:20;;;;;;;2.40;1.13;;;;;;;18.34;100.00;100023.16;5012085;28;20053;-89
2022/10/14 10:43:10;;;;;;;1.98;1.10;;;;;;;18.51;100.00;100015.22;5012074;28;20080;-89
2022/10/14 10:46:03;;;;;;;4.90;1.65;;;;;;;18.73;100.00;100013.72;5012344;28;20117;-88
2022/10/14 10:48:50;;;;;;;2.28;1.27;;;;;;;18.82;100.00;99997.63;5012118;28;20498;-89
2022/10/14 10:51:43;;;;;;;4.13;2.00;;;;;;;18.92;100.00;100005.44;5010704;28;20037;-89
2022/10/14 10:54:43;;;;;;;4.70;1.35;;;;;;;18.91;100.00;99998.44;5012524;28;20034;-88
2022/10/14 10:57:38;;;;;;;2.53;0.90;;;;;;;19.00;100.00;99996.63;5010595;28;20038;-87
2022/10/14 11:00:09;;;;;;;4.05;1.25;;;;;;;19.09;100.00;99997.41;5012528;28;20104;-87
2022/10/14 11:02:54;;;;;;;2.25;1.00;;;;;;;19.11;100.00;99995.41;5011243;28;20036;-87
2022/10/14 11:05:28;;;;;;;1.00;0.90;;;;;;;19.06;100.00;99998.59;5011332;28;20037;-87
2022/10/14 11:13:46;;;;;;;5.32;0.93;;;;;;;19.37;100.00;100004.00;5015924;28;20547;-87
2022/10/14 11:16:46;;;;;;;1.77;0.80;;;;;;;19.28;100.00;100002.38;5031216;28;20037;-87
2022/10/14 11:19:20;;;;;;;1.75;0.80;;;;;;;19.29;100.00;100006.69;5015872;28;20052;-88
2022/10/14 11:21:57;;;;;;;2.83;0.80;;;;;;;19.20;100.00;100005.88;5015152;28;20467;-88
2022/10/14 11:24:53;;;;;;;1.08;0.80;;;;;;;19.25;100.00;99999.22;5015953;28;20364;-88
2022/10/14 11:27:37;;;;;;;2.40;0.80;;;;;;;19.30;100.00;99994.22;5015742;28;20025;-88
2022/10/14 11:30:07;;;;;;;2.70;1.00;;;;;;;19.33;100.00;99997.38;5015189;28;20171;-87
2022/10/14 11:32:54;;;;;;;3.95;1.23;;;;;;;19.41;100.00;99996.50;5015460;28;20025;-88